Time;durP1;ratioP1;P1;durP2;ratioP2;P2;SDS_P1;SDS_P2;PMS_P1;PMS_P2;Temp;Humidity;BMP_temperature;BMP_pressure;BME280_temperature;BME280_humidity;BME280_pressure;Samples;Min_cycle;Max_cycle;Signal;HPM_P1;HPM_P2
2022/04/18 00:01:16;;;;;;;2.08;1.20;;;;;;;;;;2088849;28;20034;-60
2022/04/18 00:02:35;;;;;;;3.08;1.48;;;;;;;;;;2084037;28;20026;-59
2022/04/18 00:03:55;;;;;;;2.60;1.50;;;;;;;;;;2084700;28;20061;-59
2022/04/18 00:05:14;;;;;;;2.33;1.45;;;;;;;;;;2086045;28;20029;-59
2022/04/18 00:06:35;;;;;;;2.65;1.60;;;;;;;;;;2086267;28;20037;-59
2022/04/18 00:07:54;;;;;;;2.42;1.15;;;;;;;;;;2087373;28;20026;-59
2022/04/18 00:09:13;;;;;;;1.65;1.30;;;;;;;;;;2087833;28;20022;-59
2022/04/18 00:10:32;;;;;;;3.22;1.52;;;;;;;;;;2083680;28;20026;-59
2022/04/18 00:11:51;;;;;;;3.20;1.73;;;;;;;;;;2087528;28;20220;-59
2022/04/18 00:13:10;;;;;;;3.67;1.50;;;;;;;;;;2086328;28;20538;-59
2022/04/18 00:14:29;;;;;;;3.15;1.50;;;;;;;;;;2085899;28;20029;-59
2022/04/18 00:15:49;;;;;;;1.33;1.20;;;;;;;;;;2086409;28;20029;-59
2022/04/18 00:17:09;;;;;;;4.43;1.63;;;;;;;;;;2086184;28;20033;-59
2022/04/18 00:18:28;;;;;;;3.17;1.40;;;;;;;;;;2086860;28;20519;-59
2022/04/18 00:19:47;;;;;;;2.17;1.58;;;;;;;;;;2084052;28;20034;-60
2022/04/18 00:21:05;;;;;;;2.70;1.50;;;;;;;;;;2084093;28;20033;-59
2022/04/18 00:22:24;;;;;;;3.33;1.20;;;;;;;;;;2083042;28;20033;-60
2022/04/18 00:23:43;;;;;;;4.47;1.27;;;;;;;;;;2084141;28;20030;-59
2022/04/18 00:25:03;;;;;;;2.10;1.15;;;;;;;;;;2087283;28;20021;-59
2022/04/18 00:26:22;;;;;;;3.08;1.35;;;;;;;;;;2087455;28;20037;-59
2022/04/18 00:27:41;;;;;;;1.30;1.20;;;;;;;;;;2086569;28;20021;-59
2022/04/18 00:29:00;;;;;;;3.17;1.08;;;;;;;;;;2084625;28;20108;-60
2022/04/18 00:30:19;;;;;;;1.23;1.02;;;;;;;;;;2085278;28;20033;-59
2022/04/18 00:31:38;;;;;;;2.10;1.17;;;;;;;;;;2084931;28;20033;-60
2022/04/18 00:32:57;;;;;;;2.67;1.38;;;;;;;;;;2086361;28;20033;-60
2022/04/18 00:34:16;;;;;;;2.15;1.30;;;;;;;;;;2083713;28;20028;-59
2022/04/18 00:35:35;;;;;;;2.15;1.10;;;;;;;;;;2084811;28;20534;-60
2022/04/18 00:36:54;;;;;;;1.90;1.08;;;;;;;;;;2085718;28;20045;-59
2022/04/18 00:38:13;;;;;;;2.75;1.30;;;;;;;;;;2083443;28;20033;-60
2022/04/18 00:39:32;;;;;;;3.20;0.88;;;;;;;;;;2079725;28;20411;-60
2022/04/18 00:40:51;;;;;;;2.03;1.13;;;;;;;;;;2081324;28;20037;-60
2022/04/18 00:42:10;;;;;;;1.73;1.10;;;;;;;;;;2086643;28;20064;-60
2022/04/18 00:43:42;;;;;;;3.22;1.30;;;;;;;;;;2086508;28;20033;-60
2022/04/18 00:45:01;;;;;;;1.20;1.08;;;;;;;;;;2085524;28;20025;-59
2022/04/18 00:46:20;;;;;;;1.45;1.20;;;;;;;;;;2086069;28;20064;-60
2022/04/18 00:47:39;;;;;;;1.15;1.00;;;;;;;;;;2084578;28;20021;-59
2022/04/18 00:48:58;;;;;;;2.35;0.90;;;;;;;;;;2084829;28;20802;-60
2022/04/18 00:50:17;;;;;;;0.85;0.85;;;;;;;;;;2084288;28;20022;-60
2022/04/18 00:51:35;;;;;;;1.33;0.90;;;;;;;;;;2085473;28;20037;-60
2022/04/18 00:52:55;;;;;;;1.98;1.20;;;;;;;;;;2086134;28;20025;-60
2022/04/18 00:54:14;;;;;;;1.20;1.10;;;;;;;;;;2085251;28;20419;-60
2022/04/18 00:55:33;;;;;;;1.92;1.25;;;;;;;;;;2084637;28;20029;-60
2022/04/18 00:56:54;;;;;;;1.42;0.90;;;;;;;;;;2085287;28;20097;-60
2022/04/18 00:58:14;;;;;;;2.92;0.82;;;;;;;;;;2085645;28;20034;-59
2022/04/18 00:59:33;;;;;;;1.42;1.10;;;;;;;;;;2084089;28;20034;-59
2022/04/18 01:00:53;;;;;;;0.80;0.80;;;;;;;;;;2084692;28;20029;-59
2022/04/18 01:02:14;;;;;;;1.48;1.00;;;;;;;;;;2085645;28;20029;-60
2022/04/18 01:03:33;;;;;;;1.00;1.00;;;;;;;;;;2084513;28;20033;-59
2022/04/18 01:04:52;;;;;;;0.88;0.88;;;;;;;;;;2083712;28;20025;-60
2022/04/18 01:06:11;;;;;;;3.75;0.93;;;;;;;;;;2085929;28;20037;-60
2022/04/18 01:07:30;;;;;;;0.82;0.73;;;;;;;;;;2085988;28;20021;-60
2022/04/18 01:08:49;;;;;;;2.35;1.00;;;;;;;;;;2086545;28;20026;-59
2022/04/18 01:10:08;;;;;;;1.73;1.10;;;;;;;;;;2083855;28;20026;-60
2022/04/18 01:11:27;;;;;;;1.27;0.95;;;;;;;;;;2086309;28;20021;-59
2022/04/18 01:12:45;;;;;;;2.08;1.13;;;;;;;;;;2085113;28;20034;-59
2022/04/18 01:14:04;;;;;;;2.35;1.10;;;;;;;;;;2085849;28;20029;-59
2022/04/18 01:15:24;;;;;;;1.60;1.30;;;;;;;;;;2084290;28;20037;-60
2022/04/18 01:16:43;;;;;;;1.92;1.20;;;;;;;;;;2085627;28;20025;-59
2022/04/18 01:18:02;;;;;;;1.58;0.93;;;;;;;;;;2085251;28;20055;-59
2022/04/18 01:19:21;;;;;;;1.20;0.88;;;;;;;;;;2083830;28;20021;-60
2022/04/18 01:20:43;;;;;;;2.20;1.00;;;;;;;;;;2085947;28;20468;-60
2022/04/18 01:22:02;;;;;;;2.15;0.77;;;;;;;;;;2086959;28;20033;-58
2022/04/18 01:23:21;;;;;;;1.63;1.05;;;;;;;;;;2085438;28;20026;-60
2022/04/18 01:29:35;;;;;;;1.30;1.17;;;;;;;;;;2099985;28;20028;-59
2022/04/18 01:30:54;;;;;;;1.38;0.90;;;;;;;;;;2086039;28;20457;-59
2022/04/18 01:32:13;;;;;;;1.48;1.00;;;;;;;;;;2084550;28;20081;-60
2022/04/18 01:33:33;;;;;;;1.92;1.05;;;;;;;;;;2085427;28;20026;-60
2022/04/18 01:34:52;;;;;;;1.88;1.00;;;;;;;;;;2086565;28;20422;-59
2022/04/18 01:36:11;;;;;;;2.80;1.08;;;;;;;;;;2084002;28;20503;-59
2022/04/18 01:37:30;;;;;;;2.08;1.27;;;;;;;;;;2084635;28;20026;-59
2022/04/18 01:38:49;;;;;;;1.20;1.10;;;;;;;;;;2083391;28;20029;-59
2022/04/18 01:40:08;;;;;;;0.93;0.77;;;;;;;;;;2084402;28;20041;-59
2022/04/18 01:41:27;;;;;;;1.00;0.90;;;;;;;;;;2084773;28;20041;-59
2022/04/18 01:42:46;;;;;;;1.63;1.00;;;;;;;;;;2084771;28;20022;-59
2022/04/18 01:44:05;;;;;;;1.52;1.23;;;;;;;;;;2085795;28;20038;-58
2022/04/18 01:45:24;;;;;;;1.25;1.13;;;;;;;;;;2085173;28;20022;-61
2022/04/18 01:46:43;;;;;;;1.10;0.98;;;;;;;;;;2086190;28;20483;-59
2022/04/18 01:48:02;;;;;;;2.75;1.15;;;;;;;;;;2086374;28;20029;-59
2022/04/18 01:49:21;;;;;;;1.23;1.13;;;;;;;;;;2086393;28;20021;-59
2022/04/18 01:50:39;;;;;;;1.23;1.00;;;;;;;;;;2087222;28;20029;-59
2022/04/18 01:51:58;;;;;;;2.00;1.00;;;;;;;;;;2086931;28;20046;-59
2022/04/18 01:53:17;;;;;;;1.02;1.02;;;;;;;;;;2086107;28;20423;-59
2022/04/18 01:54:36;;;;;;;1.27;1.17;;;;;;;;;;2086818;28;20448;-59
2022/04/18 01:55:55;;;;;;;0.90;0.88;;;;;;;;;;2088651;28;20033;-59
2022/04/18 01:57:14;;;;;;;2.88;0.88;;;;;;;;;;2085727;28;20104;-59
2022/04/18 01:58:33;;;;;;;2.17;0.90;;;;;;;;;;2086960;28;20033;-59
2022/04/18 01:59:52;;;;;;;2.80;1.25;;;;;;;;;;2088039;28;20057;-58
2022/04/18 02:01:12;;;;;;;0.98;0.98;;;;;;;;;;2086208;28;20033;-58
2022/04/18 02:02:31;;;;;;;1.00;1.00;;;;;;;;;;2088631;28;20395;-59
2022/04/18 02:03:50;;;;;;;1.75;1.05;;;;;;;;;;2090695;28;20056;-58
2022/04/18 02:05:09;;;;;;;1.13;1.02;;;;;;;;;;2087305;28;20025;-58
2022/04/18 02:06:28;;;;;;;2.63;1.10;;;;;;;;;;2087777;28;20108;-58
2022/04/18 02:07:48;;;;;;;1.15;0.75;;;;;;;;;;2088540;28;20029;-58
2022/04/18 02:09:06;;;;;;;5.50;1.23;;;;;;;;;;2087102;28;20041;-58
2022/04/18 02:10:25;;;;;;;2.25;1.20;;;;;;;;;;2085109;28;20029;-58
2022/04/18 02:11:44;;;;;;;2.20;1.20;;;;;;;;;;2087960;28;20415;-58
2022/04/18 02:13:03;;;;;;;2.75;0.82;;;;;;;;;;2085831;28;20474;-58
2022/04/18 02:14:22;;;;;;;1.73;0.95;;;;;;;;;;2086693;28;20025;-58
2022/04/18 02:15:42;;;;;;;1.00;0.90;;;;;;;;;;2087824;28;20041;-57
2022/04/18 02:17:01;;;;;;;1.08;0.90;;;;;;;;;;2085319;28;20037;-59
2022/04/18 02:18:20;;;;;;;1.17;1.13;;;;;;;;;;2087746;28;20041;-58
2022/04/18 02:19:39;;;;;;;2.42;1.10;;;;;;;;;;2087089;28;20040;-58
2022/04/18 02:20:58;;;;;;;1.08;0.98;;;;;;;;;;2085465;28;20033;-58
2022/04/18 02:22:17;;;;;;;1.23;0.98;;;;;;;;;;2085376;28;20418;-58
2022/04/18 02:23:36;;;;;;;1.08;0.98;;;;;;;;;;2088241;28;20025;-58
2022/04/18 02:24:57;;;;;;;1.98;1.00;;;;;;;;;;2086002;28;20041;-60
2022/04/18 02:26:16;;;;;;;0.80;0.80;;;;;;;;;;2086058;28;20026;-58
2022/04/18 02:27:36;;;;;;;1.35;0.80;;;;;;;;;;2085297;28;20037;-58
2022/04/18 02:28:55;;;;;;;1.77;0.82;;;;;;;;;;2086170;28;20059;-58
2022/04/18 02:30:16;;;;;;;1.42;1.10;;;;;;;;;;2086303;28;20053;-58
2022/04/18 02:32:47;;;;;;;1.08;0.70;;;;;;;;;;2085418;28;20029;-58
2022/04/18 02:33:14;;;;;;;1.15;0.95;;;;;;;;;;2087265;28;20030;-59
2022/04/18 02:34:33;;;;;;;1.92;1.13;;;;;;;;;;2085918;28;20029;-59
2022/04/18 02:35:52;;;;;;;1.17;1.05;;;;;;;;;;2086764;28;20025;-58
2022/04/18 02:37:11;;;;;;;0.82;0.80;;;;;;;;;;2087781;28;20050;-58
2022/04/18 02:38:30;;;;;;;0.98;0.98;;;;;;;;;;2086348;28;20029;-58
2022/04/18 02:39:49;;;;;;;1.02;0.93;;;;;;;;;;2085477;28;20033;-58
2022/04/18 02:41:07;;;;;;;0.90;0.82;;;;;;;;;;2085071;28;20029;-58
2022/04/18 02:42:27;;;;;;;0.98;0.80;;;;;;;;;;2085484;28;20128;-58
2022/04/18 02:43:45;;;;;;;1.20;1.10;;;;;;;;;;2086627;28;20029;-58
2022/04/18 02:45:05;;;;;;;1.10;1.10;;;;;;;;;;2085722;28;20029;-58
2022/04/18 02:46:23;;;;;;;1.15;1.05;;;;;;;;;;2085611;28;20037;-58
2022/04/18 02:47:42;;;;;;;0.90;0.90;;;;;;;;;;2085669;28;20045;-58
2022/04/18 02:49:01;;;;;;;1.13;1.02;;;;;;;;;;2086683;28;20028;-58
2022/04/18 02:50:20;;;;;;;1.00;0.90;;;;;;;;;;2087113;28;20059;-58
2022/04/18 02:51:39;;;;;;;0.98;0.95;;;;;;;;;;2085217;28;20030;-57
2022/04/18 02:52:58;;;;;;;1.90;0.80;;;;;;;;;;2087319;28;20029;-58
2022/04/18 02:54:17;;;;;;;0.90;0.90;;;;;;;;;;2085240;28;20061;-58
2022/04/18 02:55:36;;;;;;;1.05;0.70;;;;;;;;;;2087484;28;20029;-58
2022/04/18 02:56:54;;;;;;;1.17;1.08;;;;;;;;;;2089324;28;20439;-58
2022/04/18 02:58:13;;;;;;;2.58;1.10;;;;;;;;;;2085990;28;20030;-58
2022/04/18 02:59:32;;;;;;;1.25;0.95;;;;;;;;;;2085116;28;20045;-58
2022/04/18 03:00:51;;;;;;;1.10;1.00;;;;;;;;;;2085184;28;20041;-59
2022/04/18 03:02:10;;;;;;;0.93;0.88;;;;;;;;;;2086113;28;20033;-58
2022/04/18 03:03:29;;;;;;;0.90;0.90;;;;;;;;;;2084575;28;20140;-58
2022/04/18 03:04:48;;;;;;;0.88;0.88;;;;;;;;;;2088387;28;20025;-58
2022/04/18 03:06:07;;;;;;;1.00;0.90;;;;;;;;;;2087667;28;20025;-58
2022/04/18 03:07:26;;;;;;;1.25;1.02;;;;;;;;;;2085198;28;20517;-59
2022/04/18 03:08:45;;;;;;;0.95;0.82;;;;;;;;;;2086660;28;20029;-58
2022/04/18 03:10:05;;;;;;;1.55;1.23;;;;;;;;;;2086707;28;20021;-58
2022/04/18 03:11:23;;;;;;;1.10;1.00;;;;;;;;;;2086875;28;20030;-58
2022/04/18 03:12:42;;;;;;;1.73;1.33;;;;;;;;;;2086825;28;20018;-58
2022/04/18 03:14:01;;;;;;;0.80;0.80;;;;;;;;;;2087404;28;20045;-58
2022/04/18 03:15:20;;;;;;;1.20;1.10;;;;;;;;;;2087859;28;20021;-58
2022/04/18 03:16:39;;;;;;;1.30;1.13;;;;;;;;;;2084478;28;20060;-59
2022/04/18 03:17:58;;;;;;;1.23;1.13;;;;;;;;;;2084891;28;20433;-58
2022/04/18 03:19:17;;;;;;;1.15;1.05;;;;;;;;;;2085018;28;20116;-58
2022/04/18 03:20:36;;;;;;;1.15;0.88;;;;;;;;;;2086236;28;20029;-58
2022/04/18 03:21:55;;;;;;;1.65;1.10;;;;;;;;;;2086835;28;20029;-58
2022/04/18 03:23:14;;;;;;;2.10;1.10;;;;;;;;;;2085123;28;20017;-58
2022/04/18 03:24:34;;;;;;;1.15;0.95;;;;;;;;;;2086958;28;20037;-58
2022/04/18 03:25:52;;;;;;;3.70;1.15;;;;;;;;;;2086926;28;20017;-58
2022/04/18 03:27:12;;;;;;;1.63;1.10;;;;;;;;;;2086086;28;20029;-58
2022/04/18 03:28:32;;;;;;;1.80;1.00;;;;;;;;;;2085184;28;20033;-58
2022/04/18 03:29:51;;;;;;;1.90;1.17;;;;;;;;;;2087260;28;20028;-57
2022/04/18 03:31:10;;;;;;;2.08;1.02;;;;;;;;;;2085136;28;20021;-58
2022/04/18 03:32:29;;;;;;;1.17;1.10;;;;;;;;;;2086394;28;20116;-59
2022/04/18 03:33:48;;;;;;;1.13;0.73;;;;;;;;;;2085818;28;20028;-58
2022/04/18 03:35:07;;;;;;;2.15;1.10;;;;;;;;;;2083696;28;20049;-58
2022/04/18 03:39:51;;;;;;;1.20;1.10;;;;;;;;;;2085883;28;20029;-58
2022/04/18 03:41:10;;;;;;;1.13;0.80;;;;;;;;;;2086333;28;20028;-58
2022/04/18 03:42:29;;;;;;;2.70;1.05;;;;;;;;;;2086599;28;20040;-58
2022/04/18 03:43:51;;;;;;;1.10;1.00;;;;;;;;;;2084799;28;20029;-58
2022/04/18 03:45:11;;;;;;;1.00;0.90;;;;;;;;;;2086337;28;20041;-58
2022/04/18 03:46:29;;;;;;;1.15;1.00;;;;;;;;;;2087143;28;20033;-59
2022/04/18 03:47:48;;;;;;;2.13;1.27;;;;;;;;;;2085403;28;20453;-59
2022/04/18 03:49:07;;;;;;;1.10;0.90;;;;;;;;;;2084651;28;20025;-58
2022/04/18 03:50:26;;;;;;;0.70;0.70;;;;;;;;;;2085889;28;20108;-58
2022/04/18 03:51:45;;;;;;;1.60;1.20;;;;;;;;;;2086158;28;20041;-58
2022/04/18 03:53:04;;;;;;;0.80;0.80;;;;;;;;;;2085517;28;20025;-58
2022/04/18 03:54:24;;;;;;;1.33;1.23;;;;;;;;;;2084273;28;20041;-58
2022/04/18 03:55:42;;;;;;;2.20;1.08;;;;;;;;;;2087489;28;20036;-58
2022/04/18 03:57:02;;;;;;;1.63;1.00;;;;;;;;;;2087658;28;20034;-58
2022/04/18 03:58:21;;;;;;;2.97;1.10;;;;;;;;;;2085946;28;20024;-58
2022/04/18 03:59:40;;;;;;;1.85;0.90;;;;;;;;;;2087201;28;20048;-58
2022/04/18 04:01:00;;;;;;;2.00;1.10;;;;;;;;;;2086181;28;20033;-58
2022/04/18 04:02:19;;;;;;;2.08;1.25;;;;;;;;;;2084114;28;20033;-58
2022/04/18 04:03:38;;;;;;;1.17;1.08;;;;;;;;;;2084093;28;20057;-58
2022/04/18 04:04:57;;;;;;;1.60;1.25;;;;;;;;;;2085526;28;20037;-58
2022/04/18 04:06:15;;;;;;;1.35;1.10;;;;;;;;;;2086770;28;20021;-58
2022/04/18 04:07:34;;;;;;;0.90;0.90;;;;;;;;;;2084121;28;20033;-57
2022/04/18 04:08:53;;;;;;;1.70;1.20;;;;;;;;;;2088100;28;20131;-58
2022/04/18 04:10:12;;;;;;;2.55;1.35;;;;;;;;;;2084506;28;20033;-58
2022/04/18 04:11:31;;;;;;;1.23;1.13;;;;;;;;;;2086693;28;20077;-58
2022/04/18 04:12:50;;;;;;;1.45;1.35;;;;;;;;;;2086126;28;20029;-58
2022/04/18 04:14:09;;;;;;;1.05;0.95;;;;;;;;;;2086030;28;20025;-60
2022/04/18 04:15:28;;;;;;;2.35;1.17;;;;;;;;;;2085346;28;20033;-58
2022/04/18 04:16:47;;;;;;;1.17;1.17;;;;;;;;;;2088080;28;20479;-58
2022/04/18 04:18:06;;;;;;;1.80;1.13;;;;;;;;;;2084932;28;20037;-58
2022/04/18 04:19:25;;;;;;;3.25;1.30;;;;;;;;;;2084751;28;20076;-58
2022/04/18 04:20:44;;;;;;;3.33;1.20;;;;;;;;;;2086599;28;20025;-59
2022/04/18 04:22:03;;;;;;;2.22;1.20;;;;;;;;;;2084120;28;20037;-58
2022/04/18 04:23:22;;;;;;;1.73;1.60;;;;;;;;;;2084093;28;20491;-58
2022/04/18 04:24:41;;;;;;;2.15;1.30;;;;;;;;;;2085235;28;20025;-58
2022/04/18 04:26:00;;;;;;;1.45;1.35;;;;;;;;;;2085870;28;20025;-58
2022/04/18 04:27:19;;;;;;;2.97;1.38;;;;;;;;;;2086082;28;20029;-60
2022/04/18 04:28:38;;;;;;;1.50;1.35;;;;;;;;;;2085774;28;20033;-58
2022/04/18 04:29:57;;;;;;;1.60;1.50;;;;;;;;;;2086289;28;20056;-58
2022/04/18 04:31:16;;;;;;;3.33;1.42;;;;;;;;;;2085474;28;20025;-57
2022/04/18 04:32:35;;;;;;;4.72;1.48;;;;;;;;;;2085530;28;20029;-59
2022/04/18 04:33:54;;;;;;;1.98;1.30;;;;;;;;;;2086221;28;20022;-58
2022/04/18 04:35:13;;;;;;;1.38;1.27;;;;;;;;;;2085186;28;20033;-57
2022/04/18 04:36:32;;;;;;;4.00;1.70;;;;;;;;;;2085097;28;20026;-59
2022/04/18 04:37:51;;;;;;;3.53;1.25;;;;;;;;;;2087677;28;20428;-58
2022/04/18 04:39:10;;;;;;;1.58;1.48;;;;;;;;;;2087648;28;20025;-58
2022/04/18 04:40:30;;;;;;;1.65;1.40;;;;;;;;;;2084879;28;20029;-58
2022/04/18 04:41:49;;;;;;;1.30;1.20;;;;;;;;;;2085589;28;20494;-58
2022/04/18 04:43:09;;;;;;;1.48;1.38;;;;;;;;;;2084584;28;20049;-58
2022/04/18 04:44:28;;;;;;;2.55;1.23;;;;;;;;;;2086327;28;20021;-58
2022/04/18 04:45:47;;;;;;;1.38;1.17;;;;;;;;;;2084008;28;20108;-58
2022/04/18 04:47:06;;;;;;;2.17;1.30;;;;;;;;;;2085553;28;20507;-58
2022/04/18 04:48:25;;;;;;;1.70;1.48;;;;;;;;;;2084275;28;20064;-58
2022/04/18 04:49:44;;;;;;;1.30;1.20;;;;;;;;;;2084164;28;20447;-57
2022/04/18 04:51:03;;;;;;;3.30;1.48;;;;;;;;;;2084471;28;20029;-58
2022/04/18 04:52:22;;;;;;;3.42;1.40;;;;;;;;;;2086502;28;20029;-58
2022/04/18 04:53:41;;;;;;;1.42;1.33;;;;;;;;;;2086260;28;20427;-58
2022/04/18 04:55:00;;;;;;;1.30;1.20;;;;;;;;;;2083656;28;20033;-58
2022/04/18 04:56:21;;;;;;;1.25;1.15;;;;;;;;;;2084804;28;20488;-59
2022/04/18 04:57:39;;;;;;;2.28;1.20;;;;;;;;;;2085821;28;20037;-59
2022/04/18 04:58:58;;;;;;;1.35;1.25;;;;;;;;;;2086097;28;20104;-58
2022/04/18 05:00:17;;;;;;;3.40;1.58;;;;;;;;;;2084931;28;20030;-59
2022/04/18 05:01:36;;;;;;;3.17;1.55;;;;;;;;;;2084515;28;20037;-59
2022/04/18 05:02:56;;;;;;;3.30;1.40;;;;;;;;;;2085538;28;20391;-58
2022/04/18 05:04:15;;;;;;;1.30;1.20;;;;;;;;;;2086750;28;20033;-61
2022/04/18 05:05:34;;;;;;;1.77;1.45;;;;;;;;;;2085616;28;20503;-59
2022/04/18 05:06:53;;;;;;;2.05;1.60;;;;;;;;;;2087832;28;20025;-59
2022/04/18 05:08:12;;;;;;;1.58;1.20;;;;;;;;;;2084982;28;20104;-59
2022/04/18 05:09:31;;;;;;;2.05;1.65;;;;;;;;;;2086610;28;20025;-59
2022/04/18 05:10:50;;;;;;;1.38;1.27;;;;;;;;;;2083168;28;20033;-59
2022/04/18 05:12:09;;;;;;;2.72;1.30;;;;;;;;;;2087159;28;20029;-58
2022/04/18 05:13:28;;;;;;;1.33;1.23;;;;;;;;;;2084069;28;20495;-58
2022/04/18 05:14:46;;;;;;;2.78;1.20;;;;;;;;;;2085455;28;20491;-59
2022/04/18 05:16:05;;;;;;;2.67;1.60;;;;;;;;;;2087452;28;20056;-59
2022/04/18 05:17:24;;;;;;;2.05;1.42;;;;;;;;;;2085392;28;20029;-58
2022/04/18 05:18:43;;;;;;;1.52;1.42;;;;;;;;;;2087367;28;20084;-58
2022/04/18 05:20:05;;;;;;;2.05;1.40;;;;;;;;;;2085555;28;20042;-59
2022/04/18 05:21:24;;;;;;;2.25;1.38;;;;;;;;;;2086246;28;20036;-58
2022/04/18 05:22:43;;;;;;;2.17;1.45;;;;;;;;;;2085662;28;20038;-59
2022/04/18 05:24:02;;;;;;;2.22;1.50;;;;;;;;;;2087288;28;20026;-58
2022/04/18 05:25:22;;;;;;;4.10;1.67;;;;;;;;;;2087305;28;20025;-58
2022/04/18 05:26:41;;;;;;;5.13;1.60;;;;;;;;;;2087419;28;20033;-58
2022/04/18 05:28:00;;;;;;;2.78;1.25;;;;;;;;;;2087601;28;20021;-57
2022/04/18 05:29:19;;;;;;;1.60;1.38;;;;;;;;;;2086297;28;20033;-58
2022/04/18 05:30:39;;;;;;;1.92;1.33;;;;;;;;;;2088162;28;20599;-58
2022/04/18 05:31:58;;;;;;;1.20;1.10;;;;;;;;;;2087158;28;20026;-58
2022/04/18 05:33:17;;;;;;;1.27;1.20;;;;;;;;;;2086739;28;20037;-58
2022/04/18 05:34:36;;;;;;;3.15;1.30;;;;;;;;;;2087054;28;20034;-58
2022/04/18 05:35:55;;;;;;;1.23;1.13;;;;;;;;;;2087259;28;20104;-58
2022/04/18 05:37:13;;;;;;;4.07;1.48;;;;;;;;;;2090057;28;20029;-59
2022/04/18 05:38:34;;;;;;;2.58;1.25;;;;;;;;;;2088131;28;20112;-60
2022/04/18 05:39:53;;;;;;;1.25;1.15;;;;;;;;;;2087883;28;20056;-58
2022/04/18 05:41:12;;;;;;;1.50;1.23;;;;;;;;;;2086732;28;20030;-58
2022/04/18 05:42:31;;;;;;;2.45;1.50;;;;;;;;;;2089063;28;20352;-59
2022/04/18 05:43:50;;;;;;;1.40;1.30;;;;;;;;;;2086333;28;20037;-59
2022/04/18 05:45:09;;;;;;;1.60;1.50;;;;;;;;;;2086155;28;20037;-59
2022/04/18 05:46:28;;;;;;;3.00;1.30;;;;;;;;;;2087864;28;20026;-59
2022/04/18 05:47:47;;;;;;;1.75;1.25;;;;;;;;;;2085056;28;20025;-59
2022/04/18 05:49:06;;;;;;;1.80;1.08;;;;;;;;;;2087856;28;20029;-59
2022/04/18 05:50:25;;;;;;;2.85;1.50;;;;;;;;;;2086184;28;20018;-58
2022/04/18 05:51:44;;;;;;;1.42;1.33;;;;;;;;;;2087017;28;20022;-61
2022/04/18 05:53:03;;;;;;;3.15;1.40;;;;;;;;;;2085349;28;20427;-59
2022/04/18 05:54:22;;;;;;;1.38;1.27;;;;;;;;;;2088232;28;20621;-59
2022/04/18 05:55:41;;;;;;;2.45;1.35;;;;;;;;;;2087212;28;20026;-59
2022/04/18 05:57:03;;;;;;;1.25;1.20;;;;;;;;;;2086830;28;20387;-59
2022/04/18 05:58:21;;;;;;;3.50;1.55;;;;;;;;;;2086535;28;20402;-58
2022/04/18 05:59:40;;;;;;;1.55;1.40;;;;;;;;;;2087406;28;20025;-59
2022/04/18 06:00:59;;;;;;;1.95;1.42;;;;;;;;;;2086159;28;20038;-59
2022/04/18 06:02:19;;;;;;;1.88;1.55;;;;;;;;;;2086769;28;20467;-58
2022/04/18 06:03:39;;;;;;;3.65;1.48;;;;;;;;;;2090372;28;20029;-58
2022/04/18 06:04:58;;;;;;;1.33;1.15;;;;;;;;;;2086883;28;20022;-59
2022/04/18 06:06:17;;;;;;;3.75;1.70;;;;;;;;;;2086201;28;20057;-59
2022/04/18 06:07:36;;;;;;;1.42;1.33;;;;;;;;;;2088018;28;20060;-59
2022/04/18 06:08:55;;;;;;;2.63;1.40;;;;;;;;;;2087069;28;20024;-59
2022/04/18 06:10:14;;;;;;;3.90;1.30;;;;;;;;;;2085804;28;20022;-58
2022/04/18 06:11:33;;;;;;;2.15;1.05;;;;;;;;;;2086244;28;20025;-59
2022/04/18 06:12:52;;;;;;;3.20;1.35;;;;;;;;;;2086774;28;20029;-59
2022/04/18 06:14:11;;;;;;;1.60;1.30;;;;;;;;;;2087752;28;20029;-59
2022/04/18 06:15:30;;;;;;;1.50;1.40;;;;;;;;;;2087795;28;20488;-59
2022/04/18 06:16:49;;;;;;;3.45;1.20;;;;;;;;;;2085287;28;20030;-59
2022/04/18 06:18:08;;;;;;;1.52;1.42;;;;;;;;;;2086877;28;20029;-59
2022/04/18 06:19:26;;;;;;;1.73;1.35;;;;;;;;;;2087555;28;20119;-59
2022/04/18 06:20:46;;;;;;;2.47;1.30;;;;;;;;;;2087026;28;20116;-59
2022/04/18 06:22:05;;;;;;;2.08;1.48;;;;;;;;;;2084626;28;20050;-59
2022/04/18 06:23:24;;;;;;;1.38;1.27;;;;;;;;;;2087385;28;20029;-61
2022/04/18 06:24:43;;;;;;;2.03;1.08;;;;;;;;;;2085714;28;20026;-59
2022/04/18 06:26:01;;;;;;;2.83;1.33;;;;;;;;;;2084931;28;20061;-59
2022/04/18 06:27:20;;;;;;;1.40;1.30;;;;;;;;;;2087235;28;20038;-59
2022/04/18 06:28:39;;;;;;;1.50;1.30;;;;;;;;;;2087447;28;20447;-59
2022/04/18 06:29:58;;;;;;;2.50;1.15;;;;;;;;;;2087320;28;20107;-59
2022/04/18 06:31:17;;;;;;;2.28;1.23;;;;;;;;;;2087089;28;20032;-60
2022/04/18 06:32:36;;;;;;;3.17;1.20;;;;;;;;;;2083304;28;20113;-58
2022/04/18 06:33:55;;;;;;;2.92;1.10;;;;;;;;;;2086464;28;20096;-59
2022/04/18 06:35:14;;;;;;;1.90;1.25;;;;;;;;;;2087235;28;20033;-59
2022/04/18 06:36:33;;;;;;;1.52;1.10;;;;;;;;;;2085309;28;20414;-59
2022/04/18 06:37:52;;;;;;;2.65;1.05;;;;;;;;;;2085537;28;20124;-59
2022/04/18 06:39:11;;;;;;;1.38;1.10;;;;;;;;;;2085828;28;20025;-59
2022/04/18 06:40:30;;;;;;;1.65;1.38;;;;;;;;;;2084897;28;20029;-59
2022/04/18 06:41:49;;;;;;;2.75;1.60;;;;;;;;;;2088060;28;20033;-59
2022/04/18 06:43:08;;;;;;;1.45;1.10;;;;;;;;;;2086968;28;20037;-59
2022/04/18 06:44:27;;;;;;;1.67;1.10;;;;;;;;;;2087310;28;20108;-59
2022/04/18 06:45:46;;;;;;;1.48;1.38;;;;;;;;;;2087028;28;20037;-59
2022/04/18 06:47:05;;;;;;;2.45;1.45;;;;;;;;;;2086213;28;20017;-59
2022/04/18 06:48:24;;;;;;;4.20;1.40;;;;;;;;;;2085964;28;20029;-59
2022/04/18 06:49:43;;;;;;;3.58;1.15;;;;;;;;;;2085039;28;20399;-59
2022/04/18 06:51:01;;;;;;;1.40;1.30;;;;;;;;;;2088511;28;20033;-59
2022/04/18 06:52:22;;;;;;;4.22;1.20;;;;;;;;;;2086314;28;20029;-62
2022/04/18 06:53:41;;;;;;;2.13;1.10;;;;;;;;;;2087383;28;20029;-62
2022/04/18 06:55:00;;;;;;;5.82;1.45;;;;;;;;;;2086763;28;20022;-62
2022/04/18 06:57:57;;;;;;;3.55;1.50;;;;;;;;;;2086582;28;20037;-62
2022/04/18 06:59:16;;;;;;;4.35;1.23;;;;;;;;;;2085474;28;20063;-62
2022/04/18 07:00:34;;;;;;;1.30;1.20;;;;;;;;;;2085297;28;20037;-63
2022/04/18 07:01:57;;;;;;;4.85;1.30;;;;;;;;;;2085125;28;20030;-62
2022/04/18 07:03:16;;;;;;;;;;;;;;;;;;2086692;28;20021;-62
2022/04/18 07:04:35;;;;;;;1.65;1.33;;;;;;;;;;2086052;28;20350;-62
2022/04/18 07:05:54;;;;;;;3.42;1.33;;;;;;;;;;2087922;28;20491;-62
2022/04/18 07:07:13;;;;;;;2.55;1.20;;;;;;;;;;2086065;28;20028;-63
2022/04/18 07:08:32;;;;;;;4.32;1.40;;;;;;;;;;2086444;28;20492;-62
2022/04/18 07:09:51;;;;;;;5.47;1.23;;;;;;;;;;2086091;28;20041;-62
2022/04/18 07:11:10;;;;;;;2.67;1.30;;;;;;;;;;2085682;28;20025;-62
2022/04/18 07:12:29;;;;;;;4.53;1.48;;;;;;;;;;2086560;28;20116;-62
2022/04/18 07:13:48;;;;;;;1.30;1.20;;;;;;;;;;2085534;28;20029;-63
2022/04/18 07:15:07;;;;;;;3.72;0.95;;;;;;;;;;2085562;28;20029;-63
2022/04/18 07:16:29;;;;;;;1.20;1.10;;;;;;;;;;2085104;28;20044;-64
2022/04/18 07:17:48;;;;;;;3.08;1.23;;;;;;;;;;2084902;28;20032;-63
2022/04/18 07:19:10;;;;;;;1.88;1.33;;;;;;;;;;2085839;28;20049;-62
2022/04/18 07:20:29;;;;;;;2.08;1.20;;;;;;;;;;2092901;28;20029;-62
2022/04/18 07:21:48;;;;;;;1.98;1.10;;;;;;;;;;2089419;28;20029;-62
2022/04/18 07:23:07;;;;;;;2.75;1.33;;;;;;;;;;2086633;28;20037;-62
2022/04/18 07:24:26;;;;;;;2.08;1.23;;;;;;;;;;2086545;28;20028;-62
2022/04/18 07:25:45;;;;;;;3.05;1.45;;;;;;;;;;2085103;28;20388;-63
2022/04/18 07:27:04;;;;;;;2.33;1.30;;;;;;;;;;2088205;28;20017;-62
2022/04/18 07:28:23;;;;;;;1.73;1.48;;;;;;;;;;2086781;28;20403;-64
2022/04/18 07:29:42;;;;;;;1.40;1.20;;;;;;;;;;2086793;28;20033;-63
2022/04/18 07:31:00;;;;;;;3.55;1.30;;;;;;;;;;2086171;28;20025;-63
2022/04/18 07:32:19;;;;;;;1.77;1.30;;;;;;;;;;2085859;28;20488;-63
2022/04/18 07:33:38;;;;;;;2.70;1.00;;;;;;;;;;2083869;28;20038;-64
2022/04/18 07:35:03;;;;;;;1.23;1.08;;;;;;;;;;2084502;28;20025;-63
2022/04/18 07:36:22;;;;;;;0.93;0.88;;;;;;;;;;2085969;28;20094;-63
2022/04/18 07:38:48;;;;;;;1.55;1.17;;;;;;;;;;2086572;28;20021;-63
2022/04/18 07:39:20;;;;;;;2.22;1.55;;;;;;;;;;2086762;28;20391;-63
2022/04/18 07:40:39;;;;;;;1.92;1.20;;;;;;;;;;2085116;28;20391;-64
2022/04/18 07:41:58;;;;;;;2.78;1.30;;;;;;;;;;2086472;28;20025;-63
2022/04/18 07:43:17;;;;;;;2.00;1.20;;;;;;;;;;2086691;28;20025;-63
2022/04/18 07:44:35;;;;;;;2.00;1.50;;;;;;;;;;2085016;28;20488;-63
2022/04/18 07:45:54;;;;;;;5.13;1.25;;;;;;;;;;2086792;28;20030;-63
2022/04/18 07:47:13;;;;;;;1.40;1.17;;;;;;;;;;2086282;28;20029;-63
2022/04/18 07:48:33;;;;;;;1.13;1.02;;;;;;;;;;2087025;28;20042;-63
2022/04/18 07:49:52;;;;;;;1.67;1.20;;;;;;;;;;2085728;28;20033;-63
2022/04/18 07:52:49;;;;;;;3.58;1.20;;;;;;;;;;2084878;28;20025;-63
2022/04/18 07:54:10;;;;;;;6.15;1.50;;;;;;;;;;2087381;28;20029;-62
2022/04/18 07:55:29;;;;;;;4.38;1.42;;;;;;;;;;2087820;28;20060;-63
2022/04/18 07:56:48;;;;;;;7.13;1.33;;;;;;;;;;2087088;28;20033;-63
2022/04/18 07:58:06;;;;;;;3.30;1.20;;;;;;;;;;2086660;28;20435;-62
2022/04/18 07:59:25;;;;;;;3.05;1.45;;;;;;;;;;2086541;28;20433;-62
2022/04/18 08:00:44;;;;;;;3.78;1.52;;;;;;;;;;2085491;28;20040;-62
2022/04/18 08:02:08;;;;;;;1.98;1.20;;;;;;;;;;2083078;28;20495;-62
2022/04/18 08:03:27;;;;;;;4.45;1.23;;;;;;;;;;2085777;28;20029;-62
2022/04/18 08:04:46;;;;;;;1.77;1.17;;;;;;;;;;2083611;28;20468;-62
2022/04/18 08:06:05;;;;;;;4.40;1.27;;;;;;;;;;2086877;28;20033;-62
2022/04/18 08:07:24;;;;;;;1.67;1.25;;;;;;;;;;2084904;28;20029;-62